Time;durP1;ratioP1;P1;durP2;ratioP2;P2;SDS_P1;SDS_P2;PMS_P1;PMS_P2;Temp;Humidity;BMP_temperature;BMP_pressure;BME280_temperature;BME280_humidity;BME280_pressure;Samples;Min_cycle;Max_cycle;Signal;HPM_P1;HPM_P2
2021/09/02 11:42:37;;;;;;;;;;;;;;;;;;5001870;27;59196;-82
2021/09/02 11:56:42;;;;;;;5.13;1.83;;;24.10;95.30;;;;;;4931344;28;20545;-89
2021/09/02 11:59:34;;;;;;;2.05;1.80;;;24.60;77.90;;;;;;4930356;28;20430;-81
2021/09/02 12:02:27;;;;;;;1.63;1.45;;;24.50;79.70;;;;;;4899459;28;20191;-82
2021/09/02 12:05:19;;;;;;;2.97;1.52;;;24.60;79.90;;;;;;4903207;28;20412;-80
2021/09/02 12:08:13;;;;;;;1.90;1.48;;;24.70;78.70;;;;;;4902574;28;20983;-80
2021/09/02 12:11:06;;;;;;;2.00;1.88;;;24.40;77.40;;;;;;4902933;28;20474;-80
2021/09/02 12:14:19;;;;;;;2.85;1.35;;;24.10;78.70;;;;;;4899415;28;20185;-77
2021/09/02 12:17:40;;;;;;;2.28;1.58;;;24.10;79.40;;;;;;4905871;28;91571;-79
2021/09/02 12:20:58;;;;;;;5.93;3.00;;;24.30;82.30;;;;;;5052679;27;81077;-75
2021/09/02 12:24:16;;;;;;;3.45;1.63;;;24.10;78.30;;;;;;5045169;27;81642;-76
2021/09/02 12:27:26;;;;;;;3.25;1.63;;;23.90;79.40;;;;;;5044762;27;81525;-76
2021/09/02 12:30:18;;;;;;;3.60;1.75;;;23.80;80.30;;;;;;5024943;27;81967;-76
2021/09/02 12:33:31;;;;;;;4.57;1.98;;;23.70;80.30;;;;;;5022347;27;85292;-76
2021/09/02 12:36:35;;;;;;;3.58;1.85;;;23.60;80.50;;;;;;5022191;27;84034;-76
2021/09/02 12:39:50;;;;;;;1.52;1.42;;;23.60;80.70;;;;;;5044426;27;81426;-76
2021/09/02 12:43:00;;;;;;;2.05;1.83;;;23.60;80.80;;;;;;4999877;27;81302;-76
2021/09/02 12:46:04;;;;;;;1.75;0.88;;;23.50;81.20;;;;;;5025581;27;84454;-76
2021/09/02 12:48:56;;;;;;;1.67;1.35;;;23.50;81.40;;;;;;5049559;27;81538;-76
2021/09/02 12:51:48;;;;;;;3.45;1.88;;;23.50;81.20;;;;;;5044205;27;81078;-76
2021/09/02 12:54:52;;;;;;;2.53;2.00;;;23.50;81.40;;;;;;5026926;27;81325;-76
2021/09/02 12:57:56;;;;;;;1.35;1.08;;;23.50;81.20;;;;;;5023359;27;84080;-76
2021/09/02 13:00:50;;;;;;;1.38;1.17;;;23.40;80.90;;;;;;5036287;27;81856;-76
2021/09/02 13:03:43;;;;;;;1.60;1.50;;;23.40;81.00;;;;;;5024732;27;83151;-76
2021/09/02 13:06:35;;;;;;;2.15;1.75;;;23.40;81.20;;;;;;5024508;27;81220;-76
2021/09/02 13:09:28;;;;;;;3.25;1.38;;;23.40;81.20;;;;;;5043182;27;81512;-76
2021/09/02 13:12:20;;;;;;;2.72;1.90;;;23.40;80.90;;;;;;5046674;27;82397;-76
2021/09/02 13:15:12;;;;;;;1.48;1.08;;;23.40;80.50;;;;;;5044276;27;81462;-75
2021/09/02 13:18:05;;;;;;;4.35;1.60;;;23.30;80.30;;;;;;5044718;27;81324;-76
2021/09/02 13:20:57;;;;;;;1.48;0.90;;;23.30;80.50;;;;;;5043796;27;81226;-76
2021/09/02 13:23:49;;;;;;;2.55;1.80;;;23.30;80.90;;;;;;5043738;27;81885;-76
2021/09/02 13:26:41;;;;;;;2.05;1.83;;;23.30;81.20;;;;;;5012646;27;83508;-76
2021/09/02 13:29:33;;;;;;;2.22;2.03;;;23.30;80.90;;;;;;5044445;27;81387;-76
2021/09/02 13:32:26;;;;;;;3.92;1.65;;;23.30;80.50;;;;;;5026421;27;82048;-76
2021/09/02 13:35:18;;;;;;;1.17;1.17;;;23.30;80.80;;;;;;5028719;27;83844;-77
2021/09/02 13:38:10;;;;;;;1.63;1.30;;;23.30;80.20;;;;;;5030699;27;81680;-77
2021/09/02 13:52:47;;;;;;;1.75;1.20;;;27.00;79.10;;;;;;4976284;28;81104;-91
2021/09/02 13:55:39;;;;;;;2.63;1.60;;;30.70;53.90;;;;;;4954905;28;83172;-91
2021/09/02 13:58:32;;;;;;;1.23;1.13;;;33.00;49.00;;;;;;4955875;28;83365;-90
2021/09/02 14:01:24;;;;;;;1.58;1.38;;;33.70;45.80;;;;;;4970011;28;81290;-92
2021/09/02 14:04:17;;;;;;;1.48;1.10;;;33.60;43.80;;;;;;4977653;28;82275;-91
2021/09/02 14:07:10;;;;;;;2.80;1.80;;;34.60;44.00;;;;;;4939357;28;82576;-90
2021/09/02 14:10:02;;;;;;;2.85;1.38;;;33.80;43.10;;;;;;4939705;28;82495;-90
2021/09/02 14:12:55;;;;;;;1.48;1.00;;;34.80;43.00;;;;;;4969004;28;80670;-90
2021/09/02 14:15:47;;;;;;;3.05;1.73;;;35.70;40.30;;;;;;4937973;28;81084;-91
2021/09/02 14:18:39;;;;;;;1.20;1.10;;;34.60;42.20;;;;;;4942322;28;82151;-93
2021/09/02 14:21:32;;;;;;;0.95;0.95;;;34.20;41.70;;;;;;4943386;28;82540;-91
2021/09/02 14:24:25;;;;;;;1.45;1.30;;;35.30;41.50;;;;;;4942762;28;81272;-90
2021/09/02 14:27:26;;;;;;;4.30;1.55;;;35.20;40.00;;;;;;4943961;28;83680;-88
2021/09/02 14:30:19;;;;;;;1.67;1.27;;;32.10;43.80;;;;;;4947464;28;81536;-91
2021/09/02 14:33:12;;;;;;;2.15;1.50;;;33.90;42.80;;;;;;4942176;28;83078;-91
2021/09/02 14:36:04;;;;;;;3.70;1.00;;;33.90;41.80;;;;;;4938204;28;81032;-90
2021/09/02 14:39:07;;;;;;;2.30;1.35;;;33.40;43.00;;;;;;4932898;28;84163;-90
2021/09/02 14:41:59;;;;;;;1.95;1.15;;;32.30;46.30;;;;;;4975861;28;82409;-91
2021/09/02 14:44:51;;;;;;;2.28;1.35;;;29.60;45.90;;;;;;5013321;28;20902;-90
2021/09/02 14:49:53;;;;;;;2.47;1.73;;;28.80;49.00;;;23.87;100.00;101919.47;5028097;28;35899;-92
2021/09/02 14:52:55;;;;;;;1.42;1.20;;;31.60;46.10;;;23.87;100.00;101919.47;4982122;28;145673;-92
2021/09/02 14:56:44;;;;;;;2.20;1.27;;;31.90;46.00;;;22.49;100.00;101868.53;5074680;27;20586;-69
2021/09/02 14:59:10;;;;;;;2.33;1.40;;;30.10;47.30;;;22.49;100.00;101868.53;5032462;28;25767;-69
2021/09/02 15:01:35;;;;;;;1.33;1.10;;;29.50;47.80;;;-143.91;100.00;76626.56;5020828;28;31737;-69
2021/09/02 15:04:01;;;;;;;1.75;1.08;;;29.00;48.70;;;22.49;100.00;101868.53;5020931;28;20899;-69
2021/09/02 15:06:27;;;;;;;4.45;1.52;;;28.50;49.90;;;22.49;100.00;101868.53;5020671;28;39291;-69
2021/09/02 15:08:52;;;;;;;1.90;1.67;;;28.10;50.80;;;22.49;100.00;101868.53;5019772;28;41363;-69
2021/09/02 15:11:18;;;;;;;2.33;1.45;;;27.60;51.60;;;22.49;100.00;101868.53;5035422;28;41039;-69
2021/09/02 15:13:44;;;;;;;3.13;1.67;;;27.30;52.60;;;22.49;100.00;101868.53;5020121;28;24554;-69
2021/09/02 15:16:09;;;;;;;1.50;1.40;;;26.90;53.30;;;22.49;100.00;101868.53;5033676;28;20600;-69
2021/09/02 15:18:35;;;;;;;2.42;1.30;;;26.70;54.10;;;22.49;100.00;101868.53;5040741;28;20639;-69
2021/09/02 15:21:01;;;;;;;1.52;1.20;;;26.50;54.60;;;-143.91;100.00;62816.50;5038272;28;20340;-69
2021/09/02 15:23:26;;;;;;;3.38;1.20;;;26.50;55.10;;;-143.91;100.00;62816.50;5040560;28;20808;-69
2021/09/02 15:25:52;;;;;;;2.25;1.55;;;26.60;55.70;;;-143.91;100.00;62816.50;5040494;28;20675;-68
2021/09/02 15:28:18;;;;;;;1.65;1.05;;;26.50;56.10;;;-143.91;100.00;62816.50;5039159;28;40805;-68
2021/09/02 15:30:43;;;;;;;2.25;1.58;;;26.40;56.20;;;-143.91;100.00;62816.50;5040139;28;20552;-69
2021/09/02 15:33:09;;;;;;;2.10;1.35;;;26.30;55.90;;;22.49;100.00;108709.41;5038509;28;44075;-68
2021/09/02 15:35:35;;;;;;;4.97;1.80;;;26.40;56.50;;;-143.91;100.00;62816.50;5039318;28;41993;-68
2021/09/02 15:38:00;;;;;;;1.73;1.25;;;26.00;56.80;;;-143.91;100.00;62816.50;5040378;28;20280;-69
2021/09/02 15:40:26;;;;;;;2.58;1.48;;;25.70;57.10;;;-143.91;nan;62816.50;5039263;28;42366;-68
2021/09/02 15:42:52;;;;;;;2.05;1.30;;;25.70;57.50;;;-143.91;100.00;62816.50;5038929;28;39131;-68
2021/09/02 15:45:18;;;;;;;2.08;1.20;;;25.60;57.70;;;-143.91;100.00;62816.50;5038775;28;40256;-69
2021/09/02 15:47:43;;;;;;;1.45;1.30;;;25.30;58.30;;;-143.91;100.00;62816.50;5039080;28;38869;-70
2021/09/02 15:50:10;;;;;;;2.70;1.83;;;25.20;59.10;;;-143.91;100.00;62816.50;5021075;28;28217;-69
2021/09/02 15:52:35;;;;;;;1.83;1.33;;;25.00;59.70;;;-143.91;100.00;62816.50;5042229;28;20510;-69
2021/09/02 15:55:03;;;;;;;4.30;1.88;;;24.90;60.30;;;-143.91;100.00;62816.50;5059563;28;20236;-75
2021/09/02 15:59:40;;;;;;;1.20;1.10;;;24.80;62.70;25.00;101586.00;;;;5037796;27;80766;-69
2021/09/02 16:02:06;;;;;;;2.80;2.15;;;24.60;66.50;24.80;101575.00;;;;4998775;27;80799;-69
2021/09/02 16:04:33;;;;;;;1.65;1.55;;;24.40;66.30;24.70;101576.00;;;;4998102;27;81312;-68
2021/09/02 16:06:58;;;;;;;2.38;1.90;;;24.60;67.00;24.60;101569.00;;;;4991496;27;80989;-68
2021/09/02 16:09:24;;;;;;;1.65;1.48;;;24.40;67.40;24.60;101562.00;;;;4996160;27;89971;-69
2021/09/02 16:11:50;;;;;;;2.47;1.60;;;24.60;68.10;24.50;101561.00;;;;4997254;27;82174;-69
2021/09/02 16:14:16;;;;;;;1.70;1.55;;;24.40;68.30;24.50;101562.00;;;;4988610;27;110230;-69
2021/09/02 16:16:41;;;;;;;2.13;1.48;;;24.30;68.90;24.50;101552.00;;;;4985092;27;81024;-69
2021/09/02 16:19:07;;;;;;;3.10;1.30;;;24.30;69.80;24.60;101554.00;;;;4998274;27;109735;-68
2021/09/02 16:21:33;;;;;;;1.55;1.45;;;24.30;69.70;24.50;101551.00;;;;4996282;27;81062;-68
2021/09/02 16:24:30;;;;;;;4.00;1.48;;;24.30;70.00;24.40;101549.00;;;;4941497;28;81030;-68
2021/09/02 16:26:56;;;;;;;1.98;1.75;;;24.20;69.80;24.30;101548.00;;;;4967913;28;82127;-68
2021/09/02 16:29:22;;;;;;;2.42;1.33;;;24.10;70.40;24.20;101549.00;;;;4949340;28;81153;-67
2021/09/02 16:31:48;;;;;;;2.90;1.58;;;23.90;70.50;24.10;101546.00;;;;4951894;28;81299;-68
2021/09/02 16:34:14;;;;;;;2.47;1.67;;;23.80;71.10;24.00;101541.00;;;;4951696;28;85622;-69
2021/09/02 16:36:40;;;;;;;2.53;1.90;;;23.80;71.80;23.90;101551.00;;;;4952831;28;81179;-69
2021/09/02 16:39:07;;;;;;;4.85;1.90;;;23.70;72.50;23.80;101538.00;;;;4951702;28;102588;-68
2021/09/02 16:41:35;;;;;;;2.60;2.05;;;23.60;73.00;23.60;101537.00;;;;4952348;28;82753;-68
2021/09/02 16:44:04;;;;;;;5.65;1.60;;;23.40;73.60;23.50;101544.00;;;;4936525;28;81245;-67
2021/09/02 16:46:32;;;;;;;2.13;1.73;;;23.40;74.10;23.40;101550.00;;;;4951722;28;81864;-68
2021/09/02 16:48:57;;;;;;;3.42;1.50;;;23.20;74.70;23.30;101557.00;;;;4952044;28;80843;-67
2021/09/02 16:51:23;;;;;;;3.58;1.88;;;23.10;74.90;23.10;101555.00;;;;4951503;28;81036;-68
2021/09/02 16:53:51;;;;;;;5.13;1.75;;;23.00;75.60;23.00;101549.00;;;;4951158;28;100847;-68
2021/09/02 16:56:17;;;;;;;2.95;1.85;;;22.90;76.30;22.90;101552.00;;;;4952382;28;81132;-68
2021/09/02 16:58:42;;;;;;;2.35;1.45;;;22.70;77.50;22.80;101541.00;;;;4938119;28;109354;-68
2021/09/02 17:01:08;;;;;;;4.13;2.10;;;22.60;78.30;22.70;101531.00;;;;4953399;28;108461;-67
2021/09/02 17:03:34;;;;;;;2.85;1.80;;;22.50;79.00;22.50;101534.00;;;;4955071;28;82634;-67
2021/09/02 17:06:00;;;;;;;2.72;2.08;;;22.40;79.90;22.40;101528.00;;;;4951932;28;81755;-67
2021/09/02 17:08:26;;;;;;;1.83;1.50;;;22.30;80.70;22.30;101530.00;;;;4950896;28;108718;-67
2021/09/02 17:10:52;;;;;;;2.35;1.67;;;22.10;81.60;22.30;101520.00;;;;4951076;28;108517;-68
2021/09/02 17:13:17;;;;;;;4.20;2.33;;;22.10;82.30;22.20;101527.00;;;;4951433;28;81452;-68
2021/09/02 17:15:43;;;;;;;4.10;1.73;;;22.00;82.80;22.10;101516.00;;;;4950032;28;110860;-68
2021/09/02 17:18:10;;;;;;;2.47;1.50;;;21.90;83.60;22.00;101524.00;;;;4967360;28;110300;-67
2021/09/02 17:20:35;;;;;;;3.17;2.38;;;21.80;84.40;21.90;101521.00;;;;4986912;28;108854;-68
2021/09/02 17:23:01;;;;;;;2.20;2.00;;;21.80;85.70;21.80;101517.00;;;;4986499;28;111053;-67
2021/09/02 17:25:27;;;;;;;2.70;1.80;;;21.60;86.50;21.70;101526.00;;;;4986385;28;81547;-67
2021/09/02 17:27:53;;;;;;;2.80;1.80;;;21.50;87.20;21.60;101519.00;;;;4986495;28;108149;-67
2021/09/02 17:30:18;;;;;;;2.67;2.25;;;21.50;88.40;21.50;101525.00;;;;4986924;28;108497;-67
2021/09/02 17:32:45;;;;;;;8.18;1.75;;;21.40;89.50;21.40;101523.00;;;;4985056;28;104707;-67
2021/09/02 17:35:11;;;;;;;2.83;1.98;;;21.30;90.10;21.30;101513.00;;;;4977182;28;81149;-67
2021/09/02 17:37:37;;;;;;;2.42;1.85;;;21.20;90.60;21.20;101516.00;;;;4963387;28;82901;-67
2021/09/02 17:40:05;;;;;;;2.85;1.92;;;21.10;91.00;21.10;101524.00;;;;4969976;28;108785;-67
2021/09/02 17:42:31;;;;;;;3.58;2.03;;;21.00;91.40;21.00;101512.00;;;;4973841;28;91690;-67
2021/09/02 17:44:57;;;;;;;2.13;1.90;;;20.90;91.90;20.90;101511.00;;;;4971745;28;110965;-67
2021/09/02 17:47:22;;;;;;;3.20;1.80;;;20.80;92.60;20.80;101524.00;;;;4973184;28;81256;-67
2021/09/02 17:49:48;;;;;;;2.90;1.85;;;20.60;93.00;20.60;101514.00;;;;4944744;28;81168;-67
2021/09/02 17:52:15;;;;;;;2.28;2.08;;;20.50;93.80;20.60;101518.00;;;;4973300;28;111449;-67
2021/09/02 17:54:42;;;;;;;3.75;2.20;;;20.40;94.50;20.50;101511.00;;;;4972237;28;81822;-67
2021/09/02 17:57:08;;;;;;;4.30;1.95;;;20.30;95.30;20.40;101521.00;;;;4975112;28;81047;-67
2021/09/02 17:59:34;;;;;;;3.88;2.15;;;20.20;95.80;20.30;101525.00;;;;4974208;28;80929;-67
2021/09/02 18:02:00;;;;;;;5.57;2.60;;;20.20;96.20;20.20;101518.00;;;;4972309;28;82166;-67
2021/09/02 18:04:25;;;;;;;2.90;2.25;;;20.10;96.70;20.00;101522.00;;;;4973971;28;110092;-67
2021/09/02 18:06:51;;;;;;;2.35;2.10;;;19.90;97.10;19.90;101524.00;;;;4974330;28;81280;-67
2021/09/02 18:09:17;;;;;;;2.35;1.88;;;19.80;98.10;19.80;101518.00;;;;4972186;28;82514;-68
2021/09/02 18:11:43;;;;;;;1.90;1.75;;;19.70;98.30;19.70;101518.00;;;;4976244;28;81481;-67
2021/09/02 18:14:09;;;;;;;2.38;1.58;;;19.60;98.90;19.60;101515.00;;;;4971781;28;111133;-66
2021/09/02 18:16:35;;;;;;;4.88;2.55;;;19.50;99.50;19.50;101526.00;;;;4973141;28;81798;-66
2021/09/02 18:19:01;;;;;;;2.63;1.92;;;19.40;99.90;19.40;101533.00;;;;4975502;28;81358;-67
2021/09/02 18:21:27;;;;;;;3.20;2.55;;;19.30;99.90;19.30;101538.00;;;;4973582;28;106881;-68
2021/09/02 18:23:53;;;;;;;5.75;3.55;;;19.20;99.90;19.20;101538.00;;;;4947411;28;81123;-67
2021/09/02 18:26:18;;;;;;;4.03;2.88;;;19.00;99.90;19.00;101538.00;;;;4940045;28;110330;-67
2021/09/02 18:28:44;;;;;;;4.88;2.90;;;19.00;99.90;18.90;101540.00;;;;4971860;28;108535;-67
2021/09/02 18:31:10;;;;;;;6.80;2.67;;;18.80;99.90;18.80;101538.00;;;;4972420;28;103403;-67
2021/09/02 18:33:43;;;;;;;4.13;2.60;;;18.70;99.90;18.70;101540.00;;;;4974834;28;80962;-66
2021/09/02 18:36:10;;;;;;;3.05;2.55;;;18.60;99.90;18.60;101537.00;;;;4973028;28;82074;-68
2021/09/02 18:38:38;;;;;;;7.47;3.08;;;18.50;99.90;18.40;101534.00;;;;4966164;28;81561;-68
2021/09/02 18:41:13;;;;;;;3.67;2.55;;;18.40;99.90;18.40;101531.00;;;;4957616;28;80988;-67
2021/09/02 18:43:42;;;;;;;12.43;3.67;;;18.30;99.90;18.30;101534.00;;;;4963235;28;81032;-68
2021/09/02 18:46:10;;;;;;;2.53;2.33;;;18.20;99.90;18.20;101540.00;;;;4956493;28;81704;-67
2021/09/02 18:48:37;;;;;;;3.92;2.85;;;18.10;99.90;18.20;101544.00;;;;4957081;28;81087;-67
2021/09/02 18:51:05;;;;;;;3.70;2.50;;;18.10;99.90;18.10;101545.00;;;;4964965;28;81572;-67
2021/09/02 18:53:31;;;;;;;5.30;3.03;;;18.00;99.90;18.10;101544.00;;;;4974644;28;82588;-67
2021/09/02 18:55:58;;;;;;;8.05;3.03;;;18.00;99.90;18.00;101540.00;;;;4960103;28;80934;-67
2021/09/02 18:58:26;;;;;;;4.43;3.00;;;18.00;99.90;17.90;101547.00;;;;4957429;28;81004;-67
2021/09/02 19:00:59;;;;;;;8.02;3.42;;;17.80;99.90;17.90;101541.00;;;;4957523;28;81539;-67
2021/09/02 19:03:29;;;;;;;11.30;3.65;;;17.80;99.90;17.80;101551.00;;;;4957377;28;82129;-67
2021/09/02 19:05:56;;;;;;;4.00;2.70;;;17.70;99.90;17.70;101533.00;;;;4957769;28;81085;-67
2021/09/02 19:08:27;;;;;;;3.95;3.05;;;17.70;99.90;17.70;101533.00;;;;4962974;28;80973;-67
2021/09/02 19:11:00;;;;;;;5.97;3.40;;;17.60;99.90;17.60;101540.00;;;;4958588;28;80938;-67
2021/09/02 19:13:26;;;;;;;5.07;3.95;;;17.50;99.90;17.50;101540.00;;;;4958863;28;81360;-67
2021/09/02 19:15:53;;;;;;;5.10;3.25;;;17.40;99.90;17.40;101538.00;;;;4957215;28;81427;-67
2021/09/02 19:18:18;;;;;;;4.55;3.35;;;17.30;99.90;17.40;101537.00;;;;4964542;28;86898;-67
2021/09/02 19:20:46;;;;;;;5.80;3.40;;;17.30;99.90;17.30;101528.00;;;;4956615;28;93723;-67
2021/09/02 19:23:14;;;;;;;6.13;3.63;;;17.20;99.90;17.20;101525.00;;;;4958783;28;81183;-67
2021/09/02 19:25:45;;;;;;;6.03;3.60;;;17.20;99.90;17.10;101525.00;;;;4956395;28;81692;-67
2021/09/02 19:28:15;;;;;;;6.25;3.78;;;17.10;99.90;17.10;101527.00;;;;4955715;28;81206;-67
2021/09/02 19:30:44;;;;;;;5.55;3.58;;;17.00;99.90;17.00;101523.00;;;;4956826;28;81664;-67
2021/09/02 19:33:12;;;;;;;3.17;2.83;;;16.90;99.90;16.90;101511.00;;;;4957940;28;81123;-67
2021/09/02 19:35:42;;;;;;;5.93;3.67;;;16.90;99.90;16.90;101516.00;;;;4960153;28;81769;-67
2021/09/02 19:38:09;;;;;;;7.70;3.58;;;16.80;99.90;16.80;101523.00;;;;4959745;28;80877;-67
2021/09/02 19:40:36;;;;;;;8.77;3.97;;;16.80;99.90;16.70;101516.00;;;;4959667;28;81573;-67
2021/09/02 19:43:01;;;;;;;3.97;3.40;;;16.70;99.90;16.70;101515.00;;;;4959873;28;81065;-67
2021/09/02 19:45:27;;;;;;;4.82;4.18;;;16.60;99.90;16.60;101513.00;;;;4959692;28;80666;-67
2021/09/02 19:47:55;;;;;;;5.43;3.75;;;16.50;99.90;16.50;101507.00;;;;4958899;28;80853;-67
2021/09/02 19:50:25;;;;;;;3.65;3.15;;;16.40;99.90;16.50;101501.00;;;;4960237;28;81388;-68
2021/09/02 19:52:51;;;;;;;6.18;4.60;;;16.40;99.90;16.40;101507.00;;;;4957543;28;80832;-67
2021/09/02 19:55:18;;;;;;;4.60;3.70;;;16.40;99.90;16.40;101502.00;;;;4959520;28;81115;-67
2021/09/02 19:58:03;;;;;;;6.35;5.05;;;16.30;99.90;16.30;101493.00;;;;4958837;28;80779;-67
2021/09/02 20:00:30;;;;;;;6.28;3.40;;;16.30;99.90;16.30;101506.00;;;;4957578;28;87444;-67
2021/09/02 20:03:27;;;;;;;4.40;4.00;;;16.20;99.90;16.20;101498.00;;;;4956696;28;93619;-67
2021/09/02 20:06:06;;;;;;;5.97;4.22;;;16.20;99.90;16.10;101509.00;;;;4957524;28;80828;-67
2021/09/02 20:08:34;;;;;;;5.78;4.13;;;16.10;99.90;16.10;101517.00;;;;4959453;28;81060;-67
2021/09/02 20:11:01;;;;;;;7.13;3.97;;;16.10;99.90;16.10;101514.00;;;;4957507;28;82490;-68
2021/09/02 20:13:38;;;;;;;7.40;4.18;;;16.00;99.90;16.00;101515.00;;;;4959384;28;81048;-68
2021/09/02 20:16:05;;;;;;;6.50;4.45;;;15.90;99.90;15.90;101507.00;;;;4959996;28;80964;-67
2021/09/02 20:18:31;;;;;;;7.15;5.18;;;15.90;99.90;15.90;101505.00;;;;4958812;28;80818;-67
2021/09/02 20:21:00;;;;;;;7.45;6.03;;;15.80;99.90;15.80;101505.00;;;;4957551;28;80985;-67
2021/09/02 20:23:27;;;;;;;10.70;6.45;;;15.80;99.90;15.80;101513.00;;;;4958655;28;90198;-66
2021/09/02 20:25:54;;;;;;;7.88;6.40;;;15.70;99.90;15.70;101506.00;;;;4959450;28;81338;-63
2021/09/02 20:28:21;;;;;;;11.63;7.38;;;15.60;99.90;15.60;101509.00;;;;4959439;28;81190;-63
2021/09/02 20:30:46;;;;;;;11.77;6.53;;;15.60;99.90;15.50;101507.00;;;;4958584;28;83402;-64
2021/09/02 20:33:13;;;;;;;9.30;6.43;;;15.50;99.90;15.40;101506.00;;;;4958593;28;82519;-64
2021/09/02 20:35:46;;;;;;;9.38;6.38;;;15.40;99.90;15.40;101499.00;;;;4958278;28;82674;-64
2021/09/02 20:38:13;;;;;;;8.53;5.70;;;15.30;99.90;15.30;101501.00;;;;4957130;28;86954;-64
2021/09/02 20:40:44;;;;;;;12.23;5.40;;;15.20;99.90;15.30;101512.00;;;;4958086;28;84553;-65
2021/09/02 20:43:39;;;;;;;6.60;5.47;;;15.20;99.90;15.20;101509.00;;;;4957909;28;83475;-64
2021/09/02 20:46:07;;;;;;;7.27;5.40;;;15.20;99.90;15.20;101512.00;;;;4958770;28;82527;-64
2021/09/02 20:48:42;;;;;;;7.23;5.23;;;15.10;99.90;15.10;101517.00;;;;4958166;28;82773;-63
2021/09/02 20:51:10;;;;;;;6.50;4.67;;;15.10;99.90;15.10;101512.00;;;;4958028;28;82715;-63
2021/09/02 20:53:40;;;;;;;8.60;4.97;;;15.00;99.90;15.00;101517.00;;;;4958196;28;86412;-66
2021/09/02 20:56:07;;;;;;;10.90;4.73;;;15.00;99.90;14.90;101513.00;;;;4958084;28;82890;-66
2021/09/02 20:58:33;;;;;;;7.03;4.90;;;14.90;99.90;14.90;101511.00;;;;4957666;28;107274;-65
2021/09/02 21:01:00;;;;;;;6.80;4.07;;;14.80;99.90;14.80;101503.00;;;;4958582;28;82802;-65
2021/09/02 21:03:29;;;;;;;6.30;4.37;;;14.80;99.90;14.70;101511.00;;;;4957828;28;83994;-65
2021/09/02 21:05:56;;;;;;;9.23;5.33;;;14.70;99.90;14.70;101508.00;;;;4957306;28;83648;-65
2021/09/02 21:08:23;;;;;;;6.00;3.90;;;14.60;99.90;14.60;101508.00;;;;4958136;28;82904;-65
2021/09/02 21:10:51;;;;;;;4.20;3.77;;;14.60;99.90;14.60;101504.00;;;;4960637;28;82730;-65
2021/09/02 21:13:20;;;;;;;6.57;3.97;;;14.50;99.90;14.50;101502.00;;;;4961301;28;84755;-65
2021/09/02 21:15:48;;;;;;;4.57;4.17;;;14.50;99.90;14.50;101496.00;;;;4961344;28;82512;-65
2021/09/02 21:18:16;;;;;;;7.97;4.97;;;14.60;99.90;14.50;101503.00;;;;4960096;28;82831;-65
2021/09/02 21:21:08;;;;;;;8.43;4.27;;;14.40;99.90;14.30;101506.00;;;;4961302;28;82587;-65
2021/09/02 21:23:37;;;;;;;5.93;4.37;;;14.40;99.90;14.30;101508.00;;;;4956264;28;82230;-66
2021/09/02 21:26:04;;;;;;;6.53;4.27;;;14.30;99.90;14.30;101506.00;;;;4961190;28;92544;-64
2021/09/02 21:28:47;;;;;;;5.13;4.33;;;14.30;99.90;14.20;101509.00;;;;4959414;28;82651;-65
2021/09/02 21:31:23;;;;;;;7.57;4.33;;;14.20;99.90;14.20;101503.00;;;;4960664;28;99370;-64
2021/09/02 21:34:17;;;;;;;6.57;4.40;;;14.20;99.90;14.10;101502.00;;;;4958462;28;96995;-64
2021/09/02 21:36:44;;;;;;;10.70;4.87;;;14.10;99.90;14.10;101516.00;;;;4960758;28;82877;-64
2021/09/02 21:39:13;;;;;;;9.13;5.13;;;14.10;99.90;14.10;101509.00;;;;4960789;28;90809;-64
2021/09/02 21:41:43;;;;;;;10.30;5.23;;;14.10;99.90;14.10;101509.00;;;;4961578;28;83355;-64
2021/09/02 21:44:17;;;;;;;6.77;4.30;;;14.00;99.90;14.00;101511.00;;;;4958278;28;94335;-64
2021/09/02 21:46:44;;;;;;;7.27;4.30;;;14.00;99.90;14.00;101506.00;;;;4959379;28;82528;-64
2021/09/02 21:49:10;;;;;;;5.67;3.77;;;14.00;99.90;13.90;101508.00;;;;4959623;28;81835;-64
2021/09/02 21:51:37;;;;;;;7.23;4.60;;;13.90;99.90;13.90;101509.00;;;;4961326;28;83426;-64
2021/09/02 21:54:09;;;;;;;5.80;4.33;;;13.80;99.90;13.80;101509.00;;;;4961106;28;83073;-63
2021/09/02 21:56:44;;;;;;;8.17;4.93;;;13.80;99.90;13.80;101513.00;;;;4960096;28;83705;-64
2021/09/02 21:59:10;;;;;;;6.77;4.40;;;13.80;99.90;13.80;101499.00;;;;4960596;28;82887;-64
2021/09/02 22:01:36;;;;;;;4.43;3.47;;;13.80;99.90;13.70;101502.00;;;;4960804;28;84037;-64
2021/09/02 22:04:03;;;;;;;6.43;4.23;;;13.70;99.90;13.70;101495.00;;;;4958667;28;83448;-64
2021/09/02 22:06:29;;;;;;;6.80;4.73;;;13.70;99.90;13.70;101504.00;;;;4960783;28;83891;-64
2021/09/02 22:09:00;;;;;;;8.57;4.47;;;13.70;99.90;13.70;101505.00;;;;4941799;28;109023;-64
2021/09/02 22:11:48;;;;;;;5.07;4.30;;;13.60;99.90;13.60;101506.00;;;;4961152;28;83623;-65
2021/09/02 22:14:27;;;;;;;5.87;4.47;;;13.60;99.90;13.60;101500.00;;;;4960606;28;82265;-64
2021/09/02 22:17:29;;;;;;;5.80;4.63;;;13.60;99.90;13.50;101503.00;;;;4960213;28;86817;-64
2021/09/02 22:20:14;;;;;;;5.57;4.10;;;13.50;99.90;13.50;101504.00;;;;4951148;28;82796;-64
2021/09/02 22:22:47;;;;;;;5.93;4.40;;;13.50;99.90;13.50;101499.00;;;;4959428;28;84052;-64
2021/09/02 22:25:14;;;;;;;7.27;4.63;;;13.50;99.90;13.40;101497.00;;;;4960136;28;91215;-65
2021/09/02 22:27:43;;;;;;;8.00;4.87;;;13.40;99.90;13.40;101493.00;;;;4959742;28;99818;-64
2021/09/02 22:30:10;;;;;;;5.33;4.40;;;13.40;99.90;13.40;101490.00;;;;4958604;28;82893;-65
2021/09/02 22:32:39;;;;;;;7.07;4.53;;;13.40;99.90;13.40;101492.00;;;;4959855;28;89347;-65
2021/09/02 22:35:08;;;;;;;5.50;3.80;;;13.30;99.90;13.30;101492.00;;;;4958894;28;83288;-66
2021/09/02 22:37:34;;;;;;;9.20;4.67;;;13.30;99.90;13.30;101493.00;;;;4959431;28;88889;-66
2021/09/02 22:40:05;;;;;;;6.73;4.33;;;13.30;99.90;13.20;101491.00;;;;4960620;28;81671;-65
2021/09/02 22:42:32;;;;;;;6.47;4.47;;;13.20;99.90;13.20;101481.00;;;;4960096;28;83675;-65
2021/09/02 22:44:58;;;;;;;8.60;5.03;;;13.10;99.90;13.10;101481.00;;;;4961032;28;83035;-65
2021/09/02 22:47:30;;;;;;;8.10;4.27;;;13.10;99.90;13.10;101487.00;;;;4958934;28;109358;-65
2021/09/02 22:49:56;;;;;;;8.73;4.90;;;13.10;99.90;13.00;101486.00;;;;4958284;28;82926;-66
2021/09/02 22:52:23;;;;;;;7.43;4.53;;;13.00;99.90;13.00;101477.00;;;;4960315;28;82866;-65
2021/09/02 22:54:50;;;;;;;7.30;4.50;;;13.00;99.90;13.00;101477.00;;;;4958379;28;112690;-64
2021/09/02 22:57:17;;;;;;;4.40;3.73;;;13.00;99.90;13.00;101481.00;;;;4959903;28;82604;-65
2021/09/02 22:59:47;;;;;;;4.43;3.60;;;12.90;99.90;12.90;101478.00;;;;4958485;28;82931;-64
2021/09/02 23:02:15;;;;;;;4.57;3.90;;;12.90;99.90;12.90;101473.00;;;;4959582;28;82727;-65
2021/09/02 23:04:41;;;;;;;5.03;4.13;;;12.90;99.90;12.80;101471.00;;;;4960207;28;83011;-65
2021/09/02 23:07:12;;;;;;;5.67;3.37;;;12.90;99.90;12.80;101473.00;;;;4958488;28;107934;-65
2021/09/02 23:09:48;;;;;;;5.67;4.47;;;12.80;99.90;12.80;101471.00;;;;4957275;28;89002;-64
2021/09/02 23:12:29;;;;;;;3.67;3.23;;;12.80;99.90;12.70;101456.00;;;;4958583;28;84713;-65
2021/09/02 23:15:14;;;;;;;7.93;3.80;;;12.70;99.90;12.70;101456.00;;;;4959440;28;92902;-66
2021/09/02 23:17:42;;;;;;;4.73;3.60;;;12.70;99.90;12.60;101450.00;;;;4959628;28;82894;-64
2021/09/02 23:20:11;;;;;;;7.17;4.27;;;12.70;99.90;12.60;101450.00;;;;4960006;28;82788;-64
2021/09/02 23:22:39;;;;;;;5.13;3.47;;;12.60;99.90;12.60;101455.00;;;;4958758;28;83887;-64
2021/09/02 23:25:19;;;;;;;6.53;4.30;;;12.60;99.90;12.50;101453.00;;;;4959659;28;94814;-64
2021/09/02 23:27:55;;;;;;;5.13;3.80;;;12.60;99.90;12.50;101457.00;;;;4958892;28;82830;-64
2021/09/02 23:30:21;;;;;;;6.43;4.03;;;12.50;99.90;12.50;101443.00;;;;4960872;28;82023;-65
2021/09/02 23:32:47;;;;;;;5.93;4.37;;;12.50;99.90;12.40;101441.00;;;;4957443;28;111453;-64
2021/09/02 23:35:13;;;;;;;5.43;3.77;;;12.40;99.90;12.40;101443.00;;;;4958940;28;95811;-64
2021/09/02 23:37:41;;;;;;;5.17;4.07;;;12.40;99.90;12.40;101435.00;;;;4958673;28;109561;-64
2021/09/02 23:40:11;;;;;;;8.63;4.57;;;12.40;99.90;12.40;101424.00;;;;4960747;28;82726;-64
2021/09/02 23:42:40;;;;;;;7.87;3.87;;;12.40;99.90;12.40;101424.00;;;;4959391;28;83206;-65
2021/09/02 23:45:08;;;;;;;4.30;3.73;;;12.40;99.90;12.30;101422.00;;;;4958393;28;84007;-64